Time;durP1;ratioP1;P1;durP2;ratioP2;P2;SDS_P1;SDS_P2;PMS_P1;PMS_P2;Temp;Humidity;BMP_temperature;BMP_pressure;BME280_temperature;BME280_humidity;BME280_pressure;Samples;Min_cycle;Max_cycle;Signal;HPM_P1;HPM_P2
2022/04/25 00:01:25;;;;;;;12.63;10.70;;;11.20;99.90;;;;;;5012901;28;20182;-80
2022/04/25 00:03:51;;;;;;;13.80;12.40;;;11.00;99.90;;;;;;5014037;28;20542;-80
2022/04/25 00:06:17;;;;;;;17.23;13.60;;;10.70;99.90;;;;;;5014214;28;20408;-80
2022/04/25 00:08:42;;;;;;;16.17;13.53;;;10.50;99.90;;;;;;5014141;28;20205;-79
2022/04/25 00:11:08;;;;;;;17.20;15.40;;;10.60;99.90;;;;;;5029556;28;20272;-80
2022/04/25 00:13:33;;;;;;;16.57;14.53;;;10.70;99.90;;;;;;5014175;28;20204;-80
2022/04/25 00:16:00;;;;;;;15.27;12.40;;;10.70;99.90;;;;;;5030260;28;20183;-79
2022/04/25 00:18:26;;;;;;;13.27;10.57;;;10.70;99.90;;;;;;5027900;28;20196;-80
2022/04/25 00:20:51;;;;;;;12.93;10.23;;;10.70;99.90;;;;;;5033792;28;20461;-81
2022/04/25 00:23:17;;;;;;;13.20;11.80;;;10.70;99.90;;;;;;5018422;28;20436;-81
2022/04/25 00:25:42;;;;;;;14.30;11.57;;;10.70;99.90;;;;;;5018128;28;20177;-81
2022/04/25 00:28:08;;;;;;;12.27;10.97;;;10.60;99.90;;;;;;5016210;28;20224;-81
2022/04/25 00:30:34;;;;;;;14.10;11.37;;;10.60;99.90;;;;;;5032760;28;20226;-81
2022/04/25 00:33:01;;;;;;;14.63;12.00;;;10.60;99.90;;;;;;5033370;28;20656;-82
2022/04/25 00:35:27;;;;;;;12.03;10.70;;;10.60;99.90;;;;;;5018134;28;20427;-81
2022/04/25 00:37:54;;;;;;;13.83;10.80;;;10.70;99.90;;;;;;5032562;28;20450;-81
2022/04/25 00:40:21;;;;;;;11.40;9.30;;;10.80;99.90;;;;;;5017252;28;21298;-82
2022/04/25 00:42:47;;;;;;;10.87;9.10;;;10.80;99.90;;;;;;5016315;28;20484;-81
2022/04/25 00:45:14;;;;;;;13.20;9.90;;;10.80;99.90;;;;;;5016030;28;20860;-82
2022/04/25 00:47:40;;;;;;;10.20;8.43;;;10.80;99.90;;;;;;5016242;28;21001;-81
2022/04/25 00:50:08;;;;;;;12.87;8.97;;;10.80;99.90;;;;;;5016714;28;20416;-81
2022/04/25 00:52:34;;;;;;;10.87;8.03;;;10.80;99.90;;;;;;5012119;28;20425;-81
2022/04/25 00:55:01;;;;;;;9.97;7.73;;;10.80;99.90;;;;;;5012836;28;20419;-80
2022/04/25 00:57:27;;;;;;;6.80;5.70;;;10.60;99.90;;;;;;5012565;28;20930;-80
2022/04/25 00:59:56;;;;;;;9.57;5.40;;;10.50;99.90;;;;;;5012619;28;20470;-80
2022/04/25 01:02:22;;;;;;;7.30;4.43;;;10.20;99.90;;;;;;5011267;28;20518;-81
2022/04/25 01:04:47;;;;;;;6.07;4.87;;;10.00;99.90;;;;;;5011600;28;20512;-81
2022/04/25 01:07:14;;;;;;;7.20;4.50;;;10.00;99.90;;;;;;5012457;28;20173;-82
2022/04/25 01:09:39;;;;;;;7.30;4.97;;;9.80;99.90;;;;;;5011291;28;20207;-81
2022/04/25 01:12:05;;;;;;;9.30;4.67;;;9.80;99.90;;;;;;5011222;28;20530;-82
2022/04/25 01:14:31;;;;;;;8.13;4.90;;;9.80;99.90;;;;;;5014115;28;20177;-82
2022/04/25 01:16:56;;;;;;;6.70;5.17;;;9.70;99.90;;;;;;5014850;28;20417;-82
2022/04/25 01:19:22;;;;;;;7.00;4.90;;;9.60;99.90;;;;;;5014181;28;20211;-82
2022/04/25 01:22:10;;;;;;;5.63;3.80;;;9.60;99.90;;;;;;5014238;28;20659;-81
2022/04/25 01:27:20;;;;;;;5.87;4.27;;;9.80;99.90;;;;;;5015757;28;20388;-82
2022/04/25 01:29:48;;;;;;;5.73;4.03;;;9.80;99.90;;;;;;5014229;28;20463;-82
2022/04/25 01:32:14;;;;;;;6.37;4.70;;;9.80;99.90;;;;;;5013782;28;20185;-82
2022/04/25 01:34:40;;;;;;;6.53;4.40;;;9.80;99.90;;;;;;5013239;28;20424;-82
2022/04/25 01:37:07;;;;;;;6.40;4.40;;;9.80;99.90;;;;;;5015059;28;20519;-82
2022/04/25 01:39:38;;;;;;;6.13;4.30;;;9.90;99.90;;;;;;5013900;28;20208;-81
2022/04/25 01:42:06;;;;;;;6.33;3.70;;;9.80;99.90;;;;;;5013588;28;20820;-82
2022/04/25 01:44:31;;;;;;;6.13;5.07;;;9.90;99.90;;;;;;5015308;28;20958;-82
2022/04/25 01:46:57;;;;;;;7.93;4.80;;;9.90;99.90;;;;;;5015078;28;20411;-82
2022/04/25 01:49:23;;;;;;;4.80;3.80;;;9.80;99.90;;;;;;5014890;28;20204;-81
2022/04/25 01:51:48;;;;;;;6.93;4.97;;;9.80;99.90;;;;;;5013226;28;20181;-82
2022/04/25 01:54:26;;;;;;;5.97;5.10;;;9.80;99.90;;;;;;5015051;28;20500;-82
2022/04/25 01:56:54;;;;;;;7.10;4.60;;;9.80;99.90;;;;;;5014447;28;20536;-82
2022/04/25 01:59:20;;;;;;;7.70;5.27;;;9.80;99.90;;;;;;5013025;28;20460;-82
2022/04/25 02:01:46;;;;;;;9.20;5.67;;;9.80;99.90;;;;;;5013022;28;20417;-81
2022/04/25 02:04:12;;;;;;;7.90;4.93;;;9.80;99.90;;;;;;5012927;28;20434;-82
2022/04/25 02:06:37;;;;;;;5.30;3.87;;;9.80;99.90;;;;;;5013966;28;20187;-82
2022/04/25 02:09:03;;;;;;;5.63;4.50;;;9.70;99.90;;;;;;5014686;28;20291;-82
2022/04/25 02:11:31;;;;;;;6.07;4.47;;;9.70;99.90;;;;;;5014244;28;20212;-81
2022/04/25 02:13:57;;;;;;;9.23;5.47;;;9.70;99.90;;;;;;5014009;28;20173;-82
2022/04/25 02:16:22;;;;;;;6.67;4.43;;;9.60;99.90;;;;;;5014048;28;20412;-82
2022/04/25 02:18:49;;;;;;;6.23;5.00;;;9.60;99.90;;;;;;5013940;28;20826;-81
2022/04/25 02:21:15;;;;;;;8.43;5.23;;;9.50;99.90;;;;;;5012651;28;20177;-82
2022/04/25 02:23:41;;;;;;;6.73;5.20;;;9.50;99.90;;;;;;5012758;28;20412;-82
2022/04/25 02:26:08;;;;;;;6.63;5.33;;;9.50;99.90;;;;;;5012327;28;20786;-80
2022/04/25 02:28:34;;;;;;;7.37;5.80;;;9.50;99.90;;;;;;5012434;28;20228;-81
2022/04/25 02:31:00;;;;;;;8.77;5.47;;;9.50;99.90;;;;;;5013609;28;20489;-82
2022/04/25 02:33:27;;;;;;;7.90;6.33;;;9.50;99.90;;;;;;5012511;28;20412;-81
2022/04/25 02:35:53;;;;;;;6.20;5.20;;;9.50;99.90;;;;;;5013258;28;20416;-82
2022/04/25 02:38:19;;;;;;;7.80;5.80;;;9.50;99.90;;;;;;5011968;28;20998;-82
2022/04/25 02:40:44;;;;;;;8.87;5.87;;;9.50;99.90;;;;;;5011814;28;20862;-82
2022/04/25 02:43:10;;;;;;;8.60;6.70;;;9.50;99.90;;;;;;5012203;28;20177;-81
2022/04/25 02:45:35;;;;;;;9.80;6.40;;;9.40;99.90;;;;;;5012266;28;20197;-82
2022/04/25 02:48:01;;;;;;;10.40;6.27;;;9.40;99.90;;;;;;5016889;28;20219;-81
2022/04/25 02:50:27;;;;;;;10.93;6.10;;;9.40;99.90;;;;;;5015164;28;20215;-81
2022/04/25 02:52:53;;;;;;;6.87;5.43;;;9.40;99.90;;;;;;5017029;28;20513;-81
2022/04/25 02:55:22;;;;;;;7.10;5.67;;;9.50;99.90;;;;;;5015201;28;20184;-80
2022/04/25 02:57:48;;;;;;;6.87;4.93;;;9.60;99.90;;;;;;5014978;28;20471;-82
2022/04/25 03:00:14;;;;;;;8.20;6.53;;;9.70;99.90;;;;;;5016074;28;20894;-82
2022/04/25 03:02:39;;;;;;;8.30;5.80;;;9.80;99.90;;;;;;5015236;28;20177;-82
2022/04/25 03:05:05;;;;;;;7.83;5.60;;;9.90;99.90;;;;;;5016632;28;20451;-82
2022/04/25 03:07:31;;;;;;;7.43;5.40;;;9.90;99.90;;;;;;5014505;28;20190;-81
2022/04/25 03:09:57;;;;;;;7.03;6.00;;;10.00;99.90;;;;;;5016385;28;20424;-82
2022/04/25 03:12:23;;;;;;;7.10;6.40;;;10.00;99.90;;;;;;5016562;28;20929;-82
2022/04/25 03:14:48;;;;;;;10.00;6.30;;;10.10;99.90;;;;;;5015836;28;20185;-81
2022/04/25 03:17:14;;;;;;;9.80;6.93;;;10.00;99.90;;;;;;5015953;28;20452;-82
2022/04/25 03:19:40;;;;;;;8.10;6.37;;;10.00;99.90;;;;;;5014324;28;20300;-82
2022/04/25 03:22:06;;;;;;;7.70;5.87;;;9.90;99.90;;;;;;5015564;28;20217;-80
2022/04/25 03:24:31;;;;;;;8.50;5.80;;;9.90;99.90;;;;;;5014354;28;20184;-80
2022/04/25 03:26:58;;;;;;;7.53;6.33;;;9.90;99.90;;;;;;5015672;28;20183;-82
2022/04/25 03:29:23;;;;;;;9.43;6.13;;;9.90;99.90;;;;;;5060613;22;20239;-85
2022/04/25 03:31:49;;;;;;;6.50;5.40;;;10.00;99.90;;;;;;5053664;28;20943;-85
2022/04/25 03:34:15;;;;;;;8.10;6.50;;;10.10;99.90;;;;;;5053798;28;20177;-86
2022/04/25 03:36:44;;;;;;;10.40;7.27;;;10.10;99.90;;;;;;5036144;28;20413;-85
2022/04/25 03:39:10;;;;;;;9.53;7.10;;;10.10;99.90;;;;;;5053558;28;20210;-85
2022/04/25 03:41:35;;;;;;;9.13;6.70;;;10.20;99.90;;;;;;5052348;28;20414;-85
2022/04/25 03:44:03;;;;;;;7.33;6.03;;;10.10;99.90;;;;;;5035952;28;20457;-85
2022/04/25 03:46:29;;;;;;;10.90;7.87;;;9.90;99.90;;;;;;5052246;28;20738;-85
2022/04/25 03:48:54;;;;;;;9.60;7.50;;;9.90;99.90;;;;;;5053670;28;20449;-85
2022/04/25 03:51:21;;;;;;;7.30;6.53;;;10.00;99.90;;;;;;5051949;28;20558;-85
2022/04/25 03:53:47;;;;;;;9.97;7.10;;;10.10;99.90;;;;;;5053553;28;20175;-85
2022/04/25 03:58:57;;;;;;;9.10;6.60;;;9.90;99.90;;;;;;5053021;28;20199;-85
2022/04/25 04:01:22;;;;;;;7.80;6.60;;;9.90;99.90;;;;;;5035185;28;20410;-85
2022/04/25 04:03:48;;;;;;;8.87;5.80;;;10.00;99.90;;;;;;5052152;28;20265;-85
2022/04/25 04:06:15;;;;;;;9.60;7.30;;;10.00;99.90;;;;;;5051802;28;20258;-85
2022/04/25 04:08:41;;;;;;;6.80;6.00;;;10.00;99.90;;;;;;5053148;28;20172;-85
2022/04/25 04:11:06;;;;;;;9.00;6.67;;;10.00;99.90;;;;;;5035067;28;20489;-85
2022/04/25 04:13:32;;;;;;;8.77;6.50;;;10.00;99.90;;;;;;5053038;28;20184;-85
2022/04/25 04:15:58;;;;;;;7.97;5.67;;;10.00;99.90;;;;;;5053012;28;20180;-85
2022/04/25 04:18:23;;;;;;;8.57;6.63;;;10.00;99.90;;;;;;5035115;28;20214;-85
2022/04/25 04:20:50;;;;;;;8.50;6.60;;;10.00;99.90;;;;;;5051489;28;20619;-85
2022/04/25 04:23:15;;;;;;;8.53;6.87;;;10.00;99.90;;;;;;5051558;28;20191;-84
2022/04/25 04:25:41;;;;;;;10.30;7.00;;;10.00;99.90;;;;;;5051574;28;20437;-85
2022/04/25 04:28:06;;;;;;;7.80;6.80;;;10.00;99.90;;;;;;5051512;28;20183;-85
2022/04/25 04:30:33;;;;;;;14.23;8.40;;;10.00;99.90;;;;;;5034507;28;20262;-86
2022/04/25 04:32:58;;;;;;;9.00;7.13;;;10.00;99.90;;;;;;5051460;28;20662;-86
2022/04/25 04:38:09;;;;;;;8.77;6.60;;;10.00;99.90;;;;;;5053011;28;20418;-86
2022/04/25 04:40:35;;;;;;;10.93;7.83;;;10.10;99.90;;;;;;5034318;28;20446;-86
2022/04/25 04:43:02;;;;;;;10.83;7.47;;;10.10;99.90;;;;;;5051352;28;20426;-85
2022/04/25 04:45:27;;;;;;;10.20;7.30;;;10.20;99.90;;;;;;5051031;28;20426;-86
2022/04/25 04:47:54;;;;;;;9.67;7.30;;;10.20;99.90;;;;;;5051323;28;20440;-85
2022/04/25 04:50:20;;;;;;;12.37;7.60;;;10.20;99.90;;;;;;5050672;28;20211;-86
2022/04/25 04:52:48;;;;;;;9.40;7.40;;;10.30;99.90;;;;;;5051372;28;20425;-85
2022/04/25 04:55:13;;;;;;;9.40;7.83;;;10.40;99.90;;;;;;5050839;28;20422;-85
2022/04/25 04:57:40;;;;;;;9.97;7.47;;;10.40;99.90;;;;;;5051104;28;20782;-85
2022/04/25 05:00:11;;;;;;;8.93;7.67;;;10.30;99.90;;;;;;5050622;28;20207;-85
2022/04/25 05:02:37;;;;;;;10.40;7.97;;;10.40;99.90;;;;;;5051050;28;20414;-85
2022/04/25 05:05:04;;;;;;;9.60;7.57;;;10.30;99.90;;;;;;5050929;28;20433;-86
2022/04/25 05:07:30;;;;;;;10.67;7.23;;;10.30;99.90;;;;;;5050643;28;20215;-86
2022/04/25 05:09:55;;;;;;;11.80;8.67;;;10.40;99.90;;;;;;5049814;28;20494;-86
2022/04/25 05:12:21;;;;;;;13.80;8.33;;;10.40;99.90;;;;;;5050521;28;20632;-85
2022/04/25 05:14:47;;;;;;;11.80;8.63;;;10.40;99.90;;;;;;5052136;28;20200;-85
2022/04/25 05:17:13;;;;;;;13.30;9.37;;;10.40;99.90;;;;;;5033951;28;20181;-85
2022/04/25 05:19:39;;;;;;;11.37;8.00;;;10.40;99.90;;;;;;5050712;28;20207;-85
2022/04/25 05:22:04;;;;;;;10.00;7.77;;;10.50;99.90;;;;;;5051646;28;20180;-85
2022/04/25 05:24:30;;;;;;;9.93;7.73;;;10.70;99.90;;;;;;5050710;28;20457;-86
2022/04/25 05:26:55;;;;;;;9.60;7.93;;;10.80;99.90;;;;;;5050887;28;20208;-85
2022/04/25 05:29:21;;;;;;;9.60;7.50;;;10.80;99.90;;;;;;5050373;28;20306;-85
2022/04/25 05:31:49;;;;;;;10.20;7.47;;;10.80;99.90;;;;;;5050405;28;20700;-85
2022/04/25 05:34:15;;;;;;;9.90;7.80;;;10.90;99.90;;;;;;5051778;28;20206;-85
2022/04/25 05:36:41;;;;;;;8.47;7.17;;;10.90;99.90;;;;;;5051692;28;20406;-85
2022/04/25 05:39:07;;;;;;;12.87;8.87;;;10.90;99.90;;;;;;5050283;28;20437;-85
2022/04/25 05:41:33;;;;;;;9.23;7.37;;;11.00;99.90;;;;;;5033630;28;20507;-85
2022/04/25 05:43:58;;;;;;;9.23;7.10;;;11.00;99.90;;;;;;5050414;28;20445;-85
2022/04/25 05:46:24;;;;;;;9.53;8.00;;;11.10;99.90;;;;;;5051746;28;20589;-85
2022/04/25 05:54:19;;;;;;;8.53;6.93;;;11.20;99.90;;;;;;5051899;28;20427;-85
2022/04/25 05:56:44;;;;;;;9.87;7.53;;;11.30;99.90;;;;;;5050277;28;20453;-85
2022/04/25 05:59:10;;;;;;;10.63;6.83;;;11.40;99.90;;;;;;5033749;28;20289;-86
2022/04/25 06:01:36;;;;;;;10.73;7.47;;;11.50;99.90;;;;;;5049951;28;20181;-85
2022/04/25 06:04:01;;;;;;;10.67;8.73;;;11.50;99.90;;;;;;5050355;28;20219;-85
2022/04/25 06:06:27;;;;;;;8.60;7.07;;;11.70;99.90;;;;;;5049969;28;20180;-85
2022/04/25 06:08:53;;;;;;;10.00;8.00;;;11.80;99.90;;;;;;5050140;28;20389;-86
2022/04/25 06:11:21;;;;;;;10.70;7.43;;;11.80;99.90;;;;;;5033285;28;20179;-86
2022/04/25 06:13:47;;;;;;;10.10;7.73;;;11.90;99.90;;;;;;5050253;28;20643;-86
2022/04/25 06:16:12;;;;;;;14.33;8.23;;;12.00;99.90;;;;;;5033282;28;20421;-86
2022/04/25 06:18:38;;;;;;;10.63;8.03;;;11.90;99.90;;;;;;5050149;28;20406;-86
2022/04/25 06:21:04;;;;;;;10.63;7.30;;;11.90;99.90;;;;;;5050922;28;20194;-86
2022/04/25 06:23:30;;;;;;;9.50;7.50;;;11.90;99.90;;;;;;5055360;28;20175;-86
2022/04/25 06:25:56;;;;;;;12.13;8.17;;;11.90;99.90;;;;;;5054217;28;20604;-86
2022/04/25 06:28:24;;;;;;;10.23;8.10;;;12.00;99.90;;;;;;5055114;28;20413;-86
2022/04/25 06:30:54;;;;;;;10.50;7.60;;;12.00;99.90;;;;;;5036844;28;20226;-86
2022/04/25 06:33:20;;;;;;;10.13;8.10;;;12.10;99.90;;;;;;5053617;28;20913;-86
2022/04/25 06:35:46;;;;;;;10.00;7.63;;;12.20;99.90;;;;;;5053574;28;20410;-86
2022/04/25 06:38:11;;;;;;;9.50;7.97;;;12.30;99.90;;;;;;5053596;28;20787;-86
2022/04/25 06:40:40;;;;;;;7.87;6.40;;;12.50;99.90;;;;;;5053266;28;20731;-86
2022/04/25 06:43:06;;;;;;;10.27;7.80;;;12.70;99.90;;;;;;5036724;28;20189;-86
2022/04/25 06:45:31;;;;;;;10.13;7.77;;;12.70;99.90;;;;;;5053272;28;20418;-86
2022/04/25 06:47:57;;;;;;;8.43;7.17;;;12.80;99.90;;;;;;5053380;28;20313;-86
2022/04/25 06:50:23;;;;;;;9.47;7.77;;;12.90;99.90;;;;;;5052705;28;20294;-86
2022/04/25 06:52:49;;;;;;;10.60;7.90;;;13.00;99.90;;;;;;5054536;28;20260;-86
2022/04/25 06:55:14;;;;;;;10.73;8.30;;;13.00;99.90;;;;;;5053021;28;20877;-86
2022/04/25 06:57:40;;;;;;;10.50;8.00;;;13.20;99.90;;;;;;5053317;28;20530;-86
2022/04/25 07:00:09;;;;;;;11.53;9.30;;;13.30;99.90;;;;;;5052886;28;20212;-87
2022/04/25 07:02:35;;;;;;;9.77;7.10;;;13.30;99.90;;;;;;5053262;28;20312;-86
2022/04/25 07:05:04;;;;;;;9.43;6.60;;;13.40;99.90;;;;;;5053117;28;20787;-86
2022/04/25 07:07:30;;;;;;;9.97;7.53;;;13.50;99.90;;;;;;5053079;28;20864;-86
2022/04/25 07:09:56;;;;;;;10.30;8.70;;;13.60;99.90;;;;;;5052799;28;20545;-86
2022/04/25 07:12:21;;;;;;;11.53;9.13;;;13.60;99.90;;;;;;5052907;28;20237;-83
2022/04/25 07:14:48;;;;;;;13.13;8.90;;;13.50;99.90;;;;;;5054580;28;20229;-83
2022/04/25 07:17:13;;;;;;;12.33;8.97;;;13.30;99.90;;;;;;5054623;28;20171;-83
2022/04/25 07:19:39;;;;;;;11.90;10.27;;;13.10;99.90;;;;;;5053786;28;20928;-87
2022/04/25 07:30:19;;;;;;;10.90;8.60;;;13.10;99.90;;;;;;5053733;28;20491;-83
2022/04/25 07:32:45;;;;;;;12.87;9.57;;;13.30;99.90;;;;;;5035295;28;20422;-84
2022/04/25 07:35:11;;;;;;;10.00;8.13;;;13.50;99.90;;;;;;5052825;28;20591;-84
2022/04/25 07:37:36;;;;;;;11.23;8.57;;;13.50;99.90;;;;;;5054213;28;20612;-83
2022/04/25 07:40:06;;;;;;;10.73;8.73;;;13.50;99.90;;;;;;5052947;28;20203;-84
2022/04/25 07:42:32;;;;;;;12.63;8.77;;;13.60;99.90;;;;;;5052098;28;20211;-87
2022/04/25 07:44:58;;;;;;;10.33;8.27;;;13.70;99.90;;;;;;5053725;28;20418;-86
2022/04/25 07:47:24;;;;;;;11.20;8.30;;;13.70;99.90;;;;;;5053470;28;20425;-87
2022/04/25 07:49:50;;;;;;;8.43;7.53;;;13.60;99.90;;;;;;5053323;28;20465;-87
2022/04/25 07:52:17;;;;;;;10.10;7.67;;;13.50;99.90;;;;;;5035618;28;20176;-87
2022/04/25 07:54:43;;;;;;;9.40;7.20;;;13.50;99.90;;;;;;5035184;28;20453;-87
2022/04/25 07:57:08;;;;;;;10.73;7.00;;;13.50;99.90;;;;;;5053429;28;20846;-88
2022/04/25 07:59:34;;;;;;;9.03;6.90;;;13.60;99.90;;;;;;5035265;28;20203;-87
2022/04/25 08:02:00;;;;;;;8.93;6.27;;;13.60;99.90;;;;;;5053347;28;20254;-87
2022/04/25 08:04:26;;;;;;;8.10;6.70;;;13.70;99.90;;;;;;5053147;28;20183;-87
2022/04/25 08:06:51;;;;;;;7.57;6.40;;;13.70;99.90;;;;;;5035296;28;20418;-87
2022/04/25 08:09:17;;;;;;;7.23;5.80;;;13.90;99.90;;;;;;5035277;28;20211;-87
2022/04/25 08:11:43;;;;;;;10.00;6.60;;;;;;;;;;5052774;28;20254;-87
2022/04/25 08:19:37;;;;;;;7.47;5.40;;;14.50;99.90;;;;;;5053026;28;20429;-87
2022/04/25 08:22:07;;;;;;;10.10;6.50;;;14.90;99.90;;;;;;5034706;28;20417;-87
2022/04/25 08:24:33;;;;;;;7.23;6.03;;;15.00;99.90;;;;;;5034971;28;20425;-87
2022/04/25 08:26:59;;;;;;;8.57;6.30;;;15.10;99.90;;;;;;5034676;28;20858;-87
2022/04/25 08:29:24;;;;;;;7.53;5.93;;;15.20;99.90;;;;;;5052441;28;20564;-87
2022/04/25 08:31:50;;;;;;;7.60;6.60;;;15.30;99.90;;;;;;5052316;28;20553;-88
2022/04/25 08:34:16;;;;;;;8.57;6.27;;;15.60;99.90;;;;;;5052741;28;20259;-87
2022/04/25 08:36:42;;;;;;;9.00;6.07;;;15.80;99.90;;;;;;5052364;28;20723;-87
2022/04/25 08:39:07;;;;;;;7.27;5.20;;;16.00;99.90;;;;;;5034688;28;20517;-87
2022/04/25 08:41:44;;;;;;;6.43;5.07;;;16.00;99.90;;;;;;5034385;28;20175;-87
2022/04/25 08:44:11;;;;;;;7.53;5.40;;;16.10;99.90;;;;;;5034467;28;20199;-88
2022/04/25 08:46:39;;;;;;;9.10;6.27;;;16.10;99.90;;;;;;5034289;28;20410;-87
2022/04/25 08:49:05;;;;;;;7.10;5.50;;;16.10;99.90;;;;;;5052204;28;20517;-88
2022/04/25 08:51:37;;;;;;;7.10;5.37;;;16.10;99.90;;;;;;5034129;28;20521;-87
2022/04/25 08:54:08;;;;;;;7.83;5.50;;;16.10;99.90;;;;;;5034590;28;20639;-87
2022/04/25 08:56:35;;;;;;;7.10;6.00;;;16.30;99.90;;;;;;5034207;28;20497;-87
2022/04/25 08:59:04;;;;;;;6.90;5.70;;;16.50;99.90;;;;;;5034305;28;20438;-87
2022/04/25 09:01:30;;;;;;;8.57;5.37;;;16.80;99.90;;;;;;5033918;28;20411;-87
2022/04/25 09:03:56;;;;;;;6.47;5.60;;;17.00;99.90;;;;;;5034358;28;20850;-87
2022/04/25 09:06:21;;;;;;;6.90;5.73;;;17.10;99.90;;;;;;5034024;28;20180;-86
2022/04/25 09:08:47;;;;;;;7.80;6.37;;;17.20;99.90;;;;;;5052097;28;20187;-87
2022/04/25 09:13:59;;;;;;;6.50;4.70;;;;;;;;;;5052374;28;20417;-87
2022/04/25 09:16:24;;;;;;;5.77;5.03;;;20.90;99.90;;;;;;5051655;28;20493;-88
2022/04/25 09:18:50;;;;;;;6.93;5.10;;;20.60;99.90;;;;;;5033947;28;20568;-87
2022/04/25 09:21:16;;;;;;;5.57;4.90;;;20.40;99.90;;;;;;5033762;28;20654;-87
2022/04/25 09:23:42;;;;;;;6.23;4.70;;;19.50;99.90;;;;;;5051883;28;20178;-87
2022/04/25 09:26:15;;;;;;;8.20;5.30;;;18.40;99.90;;;;;;5033762;28;20237;-87
2022/04/25 09:28:57;;;;;;;6.10;5.10;;;18.40;99.90;;;;;;5051799;28;20803;-87
2022/04/25 09:31:25;;;;;;;5.90;5.30;;;18.30;99.90;;;;;;5057023;22;20465;-79
2022/04/25 09:33:51;;;;;;;6.00;5.23;;;18.20;99.90;;;;;;5052618;28;20440;-79
2022/04/25 09:36:17;;;;;;;6.33;5.23;;;18.10;99.90;;;;;;5034414;28;20419;-79
2022/04/25 09:38:44;;;;;;;5.90;5.17;;;18.00;99.90;;;;;;5034392;28;20471;-79
2022/04/25 09:41:12;;;;;;;6.73;4.87;;;18.10;99.90;;;;;;5034522;28;20678;-78
2022/04/25 09:43:40;;;;;;;6.63;4.93;;;18.00;99.90;;;;;;5052438;28;20501;-79
2022/04/25 09:46:14;;;;;;;5.90;5.30;;;19.30;99.90;;;;;;5051837;28;20441;-79
2022/04/25 09:49:02;;;;;;;8.07;5.77;;;20.50;99.90;;;;;;5052137;28;20406;-78
2022/04/25 09:51:28;;;;;;;7.30;5.33;;;21.80;99.90;;;;;;5052050;28;20472;-79
2022/04/25 09:53:54;;;;;;;7.63;5.07;;;24.80;99.90;;;;;;5034081;28;20410;-79
2022/04/25 09:56:30;;;;;;;6.00;4.90;;;26.50;94.90;;;;;;5053423;28;20576;-79
2022/04/25 09:59:09;;;;;;;5.70;4.80;;;25.90;89.70;;;;;;5056005;28;20426;-79
2022/04/25 10:01:37;;;;;;;5.83;5.23;;;26.00;83.00;;;;;;5055537;28;20422;-78
2022/04/25 10:04:05;;;;;;;6.17;5.00;;;26.30;77.30;;;;;;5055536;28;20398;-79
2022/04/25 10:06:33;;;;;;;5.70;5.10;;;30.20;66.30;;;;;;5037590;28;20816;-79
2022/04/25 10:09:02;;;;;;;6.10;5.20;;;31.00;62.90;;;;;;5055331;28;20417;-79
2022/04/25 10:11:34;;;;;;;6.13;5.40;;;32.30;57.50;;;;;;5055433;28;20513;-80
2022/04/25 10:14:00;;;;;;;4.90;4.20;;;33.80;50.00;;;;;;5037552;28;20480;-80
2022/04/25 10:16:28;;;;;;;5.07;4.57;;;33.70;43.90;;;;;;5055355;28;20500;-80
2022/04/25 10:18:54;;;;;;;4.87;4.03;;;31.60;42.20;;;;;;5055867;28;20489;-79
2022/04/25 10:21:21;;;;;;;6.30;5.17;;;;;;;;;;5056620;28;20484;-80
2022/04/25 10:23:46;;;;;;;6.50;5.30;;;27.80;45.40;;;;;;5056733;28;20446;-79
2022/04/25 10:26:13;;;;;;;6.17;5.57;;;26.10;47.00;;;;;;5056770;28;20503;-80
2022/04/25 10:28:52;;;;;;;7.10;6.40;;;24.60;51.00;;;;;;5056949;28;20229;-79
2022/04/25 10:31:26;;;;;;;7.07;5.87;;;23.50;54.70;;;;;;5037844;28;20456;-79
2022/04/25 10:33:58;;;;;;;7.10;6.40;;;22.70;59.20;;;;;;5056423;28;20421;-80
2022/04/25 10:36:39;;;;;;;6.40;5.80;;;22.40;68.40;;;;;;5037912;28;20451;-79
2022/04/25 10:39:21;;;;;;;8.10;6.63;;;22.40;70.30;;;;;;5055977;28;20416;-79
2022/04/25 10:44:36;;;;;;;7.80;7.00;;;21.90;75.10;;;;;;5056435;28;20464;-79
2022/04/25 10:47:05;;;;;;;8.00;6.90;;;22.40;80.50;;;;;;5056048;28;20410;-78
2022/04/25 10:49:33;;;;;;;6.90;6.30;;;23.70;75.30;;;;;;5037961;28;20184;-79
2022/04/25 10:51:59;;;;;;;9.43;8.33;;;24.00;66.80;;;;;;5037643;28;20468;-79
2022/04/25 10:54:28;;;;;;;9.37;8.37;;;23.70;66.80;;;;;;5037504;28;20771;-79
2022/04/25 10:57:09;;;;;;;9.73;8.70;;;23.30;65.50;;;;;;5055763;28;20410;-79
2022/04/25 10:59:37;;;;;;;9.63;8.40;;;22.70;70.90;;;;;;5055928;28;20450;-80
2022/04/25 11:02:26;;;;;;;10.43;8.97;;;22.30;78.70;;;;;;5055904;28;20434;-80
2022/04/25 11:05:10;;;;;;;9.73;8.73;;;22.10;77.60;;;;;;5044151;28;20811;-80
2022/04/25 11:07:41;;;;;;;9.27;8.37;;;21.90;78.90;;;;;;5058735;28;20422;-80
2022/04/25 11:10:09;;;;;;;9.20;8.30;;;21.80;81.30;;;;;;5059085;28;20414;-78
2022/04/25 11:12:57;;;;;;;7.83;7.03;;;23.00;80.70;;;;;;5040124;28;20511;-80
2022/04/25 11:15:39;;;;;;;7.93;7.13;;;25.20;68.70;;;;;;5059508;28;20433;-80
2022/04/25 11:18:22;;;;;;;8.07;6.70;;;25.70;61.90;;;;;;5040828;28;20434;-80
2022/04/25 11:20:58;;;;;;;8.50;7.30;;;25.10;61.70;;;;;;5040457;28;20469;-80
2022/04/25 11:23:26;;;;;;;8.60;7.70;;;24.50;62.60;;;;;;5059448;28;20418;-80
2022/04/25 11:25:55;;;;;;;8.50;7.33;;;23.90;64.10;;;;;;5042947;28;20439;-79
2022/04/25 11:28:21;;;;;;;7.90;7.03;;;23.50;62.20;;;;;;5055528;28;20917;-79
2022/04/25 11:31:13;;;;;;;7.70;7.00;;;23.20;62.90;;;;;;5037253;28;20415;-79
2022/04/25 11:33:42;;;;;;;8.37;7.57;;;22.80;67.80;;;;;;5053873;28;20430;-79
2022/04/25 11:36:08;;;;;;;9.47;8.50;;;22.50;68.30;;;;;;5053829;28;20482;-79
2022/04/25 11:41:23;;;;;;;10.43;8.00;;;24.70;72.60;;;;;;5054152;28;20899;-79
2022/04/25 11:43:49;;;;;;;8.80;7.90;;;26.60;64.30;;;;;;5035593;28;20430;-80
2022/04/25 11:46:15;;;;;;;8.13;7.33;;;26.70;60.30;;;;;;5053037;28;20425;-79
2022/04/25 11:48:42;;;;;;;8.93;7.60;;;27.60;58.50;;;;;;5056071;28;20203;-79
2022/04/25 11:51:08;;;;;;;9.80;7.50;;;28.50;54.70;;;;;;5057817;28;20823;-80
2022/04/25 11:53:34;;;;;;;8.80;7.77;;;28.30;54.80;;;;;;5040942;28;20422;-81
2022/04/25 11:56:14;;;;;;;8.77;7.87;;;27.50;52.60;;;;;;5059294;28;20410;-80
2022/04/25 11:58:40;;;;;;;9.50;8.00;;;27.60;51.80;;;;;;5041290;28;20502;-80
2022/04/25 12:01:08;;;;;;;9.53;8.20;;;27.10;51.80;;;;;;5059124;28;20457;-80
2022/04/25 12:03:34;;;;;;;9.23;8.20;;;26.30;50.90;;;;;;5059437;28;20474;-81
2022/04/25 12:06:13;;;;;;;9.90;8.10;;;26.70;52.50;;;;;;5073958;28;20436;-80
2022/04/25 12:17:03;;;;;;;10.47;8.33;;;23.80;56.00;;;;;;5064771;28;20409;-80
2022/04/25 12:19:28;;;;;;;9.97;8.03;;;26.10;56.40;;;;;;5063717;28;20484;-80
2022/04/25 12:22:03;;;;;;;9.53;7.50;;;26.20;52.20;;;;;;5046016;28;20442;-81
2022/04/25 12:24:29;;;;;;;7.93;6.73;;;26.10;53.50;;;;;;5064392;28;20197;-79
2022/04/25 12:26:55;;;;;;;8.50;7.40;;;24.80;51.20;;;;;;5063765;28;20501;-80
2022/04/25 12:29:20;;;;;;;9.63;7.40;;;23.30;54.20;;;;;;5063655;28;20449;-81
2022/04/25 12:31:49;;;;;;;9.40;8.47;;;22.50;55.20;;;;;;5034472;28;118974;-80
2022/04/25 12:34:17;;;;;;;8.30;7.40;;;22.10;56.30;;;;;;5053025;28;20184;-81
2022/04/25 12:36:56;;;;;;;7.67;6.40;;;21.40;59.70;;;;;;5045066;28;20414;-80
2022/04/25 12:39:24;;;;;;;8.57;7.70;;;21.40;60.60;;;;;;5060228;28;20480;-82
2022/04/25 12:41:57;;;;;;;9.00;7.87;;;21.30;62.70;;;;;;5051732;28;20501;-81
2022/04/25 12:44:24;;;;;;;8.57;7.20;;;20.90;64.20;;;;;;5036800;28;20434;-81
2022/04/25 12:46:59;;;;;;;8.63;7.83;;;20.70;67.60;;;;;;5053800;28;20787;-80
2022/04/25 12:49:44;;;;;;;9.00;7.57;;;20.40;67.30;;;;;;5054374;28;20413;-80
2022/04/25 12:52:11;;;;;;;10.90;7.50;;;20.30;72.80;;;;;;5054284;28;20495;-81
2022/04/25 12:54:47;;;;;;;9.50;8.60;;;20.40;74.50;;;;;;5053449;28;20793;-81
2022/04/25 12:57:24;;;;;;;9.23;8.07;;;20.00;73.10;;;;;;5052721;28;20445;-80
2022/04/25 12:59:52;;;;;;;8.10;6.97;;;19.90;75.70;;;;;;5054655;28;20956;-80
2022/04/25 13:02:22;;;;;;;7.23;6.47;;;20.00;79.00;;;;;;5037212;28;20864;-80
2022/04/25 13:04:51;;;;;;;9.07;7.47;;;20.10;74.50;;;;;;5037672;28;20414;-80
2022/04/25 13:07:18;;;;;;;7.03;6.33;;;20.30;76.80;;;;;;5055626;28;20414;-81
2022/04/25 13:09:44;;;;;;;8.37;6.47;;;20.20;71.40;;;;;;5053914;28;20865;-79
2022/04/25 13:12:17;;;;;;;9.10;7.10;;;20.30;75.00;;;;;;5035130;28;20446;-81
2022/04/25 13:14:43;;;;;;;8.30;7.23;;;20.10;71.70;;;;;;5053741;28;20190;-80
2022/04/25 13:17:09;;;;;;;10.33;7.50;;;19.70;71.80;;;;;;5053734;28;20418;-80
2022/04/25 13:19:35;;;;;;;10.77;8.07;;;19.60;73.30;;;;;;5037941;28;20830;-81
2022/04/25 13:22:01;;;;;;;7.77;6.50;;;19.60;74.80;;;;;;5056809;28;20442;-81
2022/04/25 13:24:27;;;;;;;9.57;7.67;;;19.40;74.70;;;;;;5057428;28;20180;-80
2022/04/25 13:26:52;;;;;;;9.43;8.40;;;19.50;78.90;;;;;;5038459;28;20427;-82
2022/04/25 13:29:18;;;;;;;9.20;7.77;;;19.40;80.20;;;;;;5056101;28;20176;-80
2022/04/25 13:31:43;;;;;;;9.40;8.10;;;19.10;78.90;;;;;;5036113;28;20223;-81